Time;durP1;ratioP1;P1;durP2;ratioP2;P2;SDS_P1;SDS_P2;PMS_P1;PMS_P2;Temp;Humidity;BMP_temperature;BMP_pressure;BME280_temperature;BME280_humidity;BME280_pressure;Samples;Min_cycle;Max_cycle;Signal;HPM_P1;HPM_P2
2021/04/03 00:01:06;;;;;;;9.27;6.35;;;;;;;4.90;69.93;95476.19;5008915;28;20031;-66
2021/04/03 00:03:31;;;;;;;8.18;7.38;;;;;;;4.99;69.52;95461.47;5008388;28;20037;-66
2021/04/03 00:05:57;;;;;;;7.47;6.75;;;;;;;4.86;70.22;95461.94;5008973;28;20068;-66
2021/04/03 00:08:26;;;;;;;8.43;7.63;;;;;;;4.95;70.55;95492.03;4987774;28;20400;-64
2021/04/03 00:10:55;;;;;;;8.60;7.70;;;;;;;4.89;70.96;95495.72;5004525;28;20045;-67
2021/04/03 00:13:24;;;;;;;7.63;6.93;;;;;;;4.98;70.69;95498.66;4990867;28;20035;-66
2021/04/03 00:15:49;;;;;;;8.68;7.63;;;;;;;4.77;70.90;95471.44;4974575;28;20141;-66
2021/04/03 00:18:16;;;;;;;9.10;7.63;;;;;;;4.80;71.05;95500.69;4971489;28;20122;-66
2021/04/03 00:20:43;;;;;;;8.20;7.40;;;;;;;4.82;71.01;95501.22;4982601;28;20073;-66
2021/04/03 00:23:09;;;;;;;8.00;7.30;;;;;;;4.67;71.06;95472.97;5011338;28;20034;-66
2021/04/03 00:25:35;;;;;;;9.48;8.48;;;;;;;4.78;70.86;95470.38;5014696;28;20064;-66
2021/04/03 00:28:01;;;;;;;9.48;7.30;;;;;;;4.54;71.53;95457.63;4994343;28;20562;-66
2021/04/03 00:30:27;;;;;;;9.20;8.27;;;;;;;4.86;71.02;95485.66;4993057;28;20046;-66
2021/04/03 00:32:55;;;;;;;9.27;8.35;;;;;;;4.66;71.42;95462.69;4992806;28;20050;-66
2021/04/03 00:35:27;;;;;;;10.05;8.25;;;;;;;4.87;71.15;95472.25;4992808;28;20046;-65
2021/04/03 00:37:54;;;;;;;13.30;10.35;;;;;;;4.83;71.08;95478.31;4991560;28;20022;-66
2021/04/03 00:40:21;;;;;;;11.07;9.27;;;;;;;4.77;71.21;95480.13;4994476;28;20026;-65
2021/04/03 00:42:47;;;;;;;9.05;8.15;;;;;;;4.36;72.54;95464.16;4992575;28;20038;-66
2021/04/03 00:45:14;;;;;;;9.25;8.07;;;;;;;4.40;72.47;95448.63;4991410;28;20093;-66
2021/04/03 00:47:40;;;;;;;8.95;8.05;;;;;;;4.34;72.42;95447.00;4992615;28;20073;-66
2021/04/03 00:50:07;;;;;;;9.45;8.02;;;;;;;4.36;72.58;95456.25;4991441;28;20050;-65
2021/04/03 00:52:33;;;;;;;9.13;8.10;;;;;;;4.30;72.94;95462.56;4994325;28;20072;-65
2021/04/03 00:54:58;;;;;;;9.80;8.48;;;;;;;4.35;72.47;95456.50;5006219;28;20096;-66
2021/04/03 00:57:24;;;;;;;10.15;8.38;;;;;;;4.78;71.60;95478.28;4990901;28;20320;-65
2021/04/03 00:59:49;;;;;;;8.77;7.88;;;;;;;5.13;70.58;95480.22;4992548;28;20507;-65
2021/04/03 01:02:15;;;;;;;9.15;8.25;;;;;;;5.07;70.22;95479.44;4992332;28;20088;-67
2021/04/03 01:04:40;;;;;;;8.45;7.65;;;;;;;4.59;72.13;95494.53;4994192;28;20044;-67
2021/04/03 01:07:05;;;;;;;7.75;6.93;;;;;;;4.43;73.18;95492.88;4992281;28;20104;-65
2021/04/03 01:09:38;;;;;;;8.82;7.93;;;;;;;4.34;73.19;95486.50;4992352;28;20500;-65
2021/04/03 01:12:54;;;;;;;10.32;8.55;;;;;;;4.47;72.88;95493.97;4992074;28;20045;-66
2021/04/03 01:15:45;;;;;;;8.93;8.02;;;;;;;4.51;72.96;95494.25;4979323;28;20042;-66
2021/04/03 01:18:18;;;;;;;8.38;7.57;;;;;;;4.79;72.09;95503.59;4991480;28;20045;-65
2021/04/03 01:20:56;;;;;;;8.55;7.68;;;;;;;4.74;71.73;95504.34;4986378;28;20046;-65
2021/04/03 01:23:43;;;;;;;9.10;8.20;;;;;;;5.07;70.55;95491.81;4991731;28;20103;-65
2021/04/03 01:26:40;;;;;;;8.63;7.70;;;;;;;4.85;71.34;95503.34;4992181;28;20528;-65
2021/04/03 01:29:09;;;;;;;8.23;7.45;;;;;;;4.95;70.63;95489.41;4991724;28;20042;-66
2021/04/03 01:31:39;;;;;;;9.65;7.43;;;;;;;5.33;69.52;95511.13;4993092;28;20501;-66
2021/04/03 01:34:14;;;;;;;9.35;8.15;;;;;;;5.20;69.21;95480.75;4991924;28;20042;-66
2021/04/03 01:36:42;;;;;;;8.63;7.75;;;;;;;5.06;70.43;95512.09;4991889;28;20033;-66
2021/04/03 01:39:13;;;;;;;9.25;8.35;;;;;;;5.04;70.17;95523.97;4974406;28;20519;-66
2021/04/03 01:41:42;;;;;;;8.25;7.47;;;;;;;4.91;70.31;95509.41;4998660;28;20034;-66
2021/04/03 01:44:11;;;;;;;10.38;7.78;;;;;;;4.80;70.67;95527.03;5011110;28;20395;-65
2021/04/03 01:46:39;;;;;;;8.10;7.30;;;;;;;4.71;70.87;95525.97;5013277;28;20080;-66
2021/04/03 01:49:15;;;;;;;8.75;7.20;;;;;;;4.95;69.61;95502.56;4992458;28;20050;-68
2021/04/03 01:51:45;;;;;;;7.35;6.53;;;;;;;4.57;69.44;95509.03;4991180;28;20097;-67
2021/04/03 01:54:13;;;;;;;7.65;6.15;;;;;;;4.39;70.64;95536.59;5002782;28;20061;-67
2021/04/03 01:56:41;;;;;;;9.07;6.10;;;;;;;4.32;70.64;95544.72;5011095;28;20040;-67
2021/04/03 01:59:08;;;;;;;6.65;5.25;;;;;;;4.20;71.75;95551.19;5010980;28;20488;-66
2021/04/03 02:01:41;;;;;;;8.27;6.65;;;;;;;4.21;71.48;95539.66;5012695;28;20189;-65
2021/04/03 02:04:07;;;;;;;9.73;6.30;;;;;;;4.09;71.30;95548.50;5010657;28;20096;-65
2021/04/03 02:06:35;;;;;;;10.50;7.25;;;;;;;3.95;71.85;95534.19;4993233;28;20365;-66
2021/04/03 02:09:02;;;;;;;7.60;6.10;;;;;;;3.84;72.05;95522.03;5009200;28;20036;-66
2021/04/03 02:11:28;;;;;;;28.30;7.65;;;;;;;4.04;71.05;95505.56;5010556;28;20092;-66
2021/04/03 02:13:55;;;;;;;7.57;6.78;;;;;;;4.00;70.15;95473.69;4992883;28;20041;-66
2021/04/03 02:16:21;;;;;;;7.43;6.72;;;;;;;4.33;70.20;95513.91;5012574;28;20026;-66
2021/04/03 02:18:48;;;;;;;11.02;7.20;;;;;;;4.34;69.73;95492.56;5010416;28;20619;-67
2021/04/03 02:21:14;;;;;;;8.48;6.70;;;;;;;4.40;69.12;95514.44;5008871;28;20034;-64
2021/04/03 02:23:39;;;;;;;5.65;5.05;;;;;;;4.16;69.34;95528.03;5010377;28;20099;-65
2021/04/03 02:26:04;;;;;;;10.13;7.15;;;;;;;4.27;69.24;95505.19;5010480;28;20029;-65
2021/04/03 02:28:31;;;;;;;9.20;6.38;;;;;;;4.11;68.15;95514.81;5011783;28;20034;-66
2021/04/03 02:30:57;;;;;;;11.15;6.47;;;;;;;4.61;66.99;95526.72;5010415;28;20038;-66
2021/04/03 02:33:22;;;;;;;6.75;5.53;;;;;;;4.07;67.00;95510.31;5010131;28;20488;-66
2021/04/03 02:35:48;;;;;;;7.28;4.10;;;;;;;3.71;67.69;95504.78;5010331;28;20049;-66
2021/04/03 02:38:15;;;;;;;7.78;6.18;;;;;;;4.22;66.31;95517.53;5010104;28;20049;-66
2021/04/03 02:40:41;;;;;;;9.73;4.78;;;;;;;4.10;66.03;95523.78;5012331;28;20511;-65
2021/04/03 02:43:16;;;;;;;5.63;3.83;;;;;;;3.74;66.02;95499.03;5009276;28;20120;-67
2021/04/03 02:45:57;;;;;;;11.13;6.20;;;;;;;4.38;64.30;95529.72;4994837;28;20045;-65
2021/04/03 02:48:26;;;;;;;10.57;4.28;;;;;;;3.81;64.59;95499.63;5003262;28;20042;-66
2021/04/03 02:50:53;;;;;;;8.90;5.22;;;;;;;4.06;65.23;95519.28;4983350;28;20118;-66
2021/04/03 02:53:29;;;;;;;9.35;5.22;;;;;;;4.11;63.15;95482.44;4993465;28;20049;-65
2021/04/03 02:55:56;;;;;;;8.10;5.60;;;;;;;3.97;64.74;95531.31;5008332;28;20060;-65
2021/04/03 02:58:23;;;;;;;8.35;5.15;;;;;;;3.98;66.00;95533.69;5011594;28;20026;-65
2021/04/03 03:00:55;;;;;;;8.73;6.05;;;;;;;3.90;66.12;95505.22;5009754;28;20062;-65
2021/04/03 03:03:25;;;;;;;8.70;5.65;;;;;;;4.38;65.48;95529.72;5009422;28;20385;-67
2021/04/03 03:05:56;;;;;;;8.05;6.35;;;;;;;3.94;67.34;95547.59;5009706;28;20045;-67
2021/04/03 03:08:22;;;;;;;9.98;4.95;;;;;;;3.64;67.86;95535.78;5009497;28;20042;-66
2021/04/03 03:10:49;;;;;;;8.48;6.25;;;;;;;3.86;67.91;95546.22;5009715;28;20026;-67
2021/04/03 03:13:19;;;;;;;7.18;5.95;;;;;;;4.16;66.81;95511.44;5011203;28;20021;-65
2021/04/03 03:15:45;;;;;;;8.63;6.10;;;;;;;4.34;67.24;95541.81;5009681;28;20038;-66
2021/04/03 03:18:11;;;;;;;10.88;5.47;;;;;;;4.26;66.15;95539.69;5008036;28;20065;-66
2021/04/03 03:20:37;;;;;;;6.88;6.05;;;;;;;3.79;66.91;95500.94;5009352;28;20026;-66
2021/04/03 03:23:02;;;;;;;9.50;6.00;;;;;;;3.88;67.69;95550.19;5009258;28;20026;-65
2021/04/03 03:25:28;;;;;;;10.05;7.30;;;;;;;4.25;66.85;95531.00;5011371;28;20029;-65
2021/04/03 03:27:54;;;;;;;11.10;7.28;;;;;;;4.42;65.59;95507.09;5009129;28;20480;-66
2021/04/03 03:30:21;;;;;;;10.30;6.70;;;;;;;4.73;64.52;95541.50;5009435;28;20116;-66
2021/04/03 03:32:47;;;;;;;7.93;5.75;;;;;;;3.91;65.70;95520.75;5008988;28;20053;-66
2021/04/03 03:35:14;;;;;;;8.43;6.82;;;;;;;4.56;65.31;95533.78;4991528;28;20369;-66
2021/04/03 03:37:42;;;;;;;12.48;6.85;;;;;;;4.47;63.97;95482.63;5010987;28;20026;-67
2021/04/03 03:40:09;;;;;;;11.23;6.60;;;;;;;4.17;65.51;95537.50;5009228;28;20053;-66
2021/04/03 03:42:35;;;;;;;8.93;6.80;;;;;;;4.21;65.77;95515.94;5008821;28;20054;-66
2021/04/03 03:45:06;;;;;;;8.32;6.68;;;;;;;4.57;64.09;95504.56;4991171;28;20046;-66
2021/04/03 03:47:31;;;;;;;8.35;6.25;;;;;;;4.13;65.75;95530.38;5008759;28;20084;-67
2021/04/03 03:49:57;;;;;;;7.78;6.97;;;;;;;4.15;66.89;95517.75;5008925;28;20109;-67
2021/04/03 03:52:22;;;;;;;12.20;6.95;;;;;;;4.16;65.90;95509.59;5010525;28;20034;-67
2021/04/03 03:54:47;;;;;;;8.82;7.15;;;;;;;4.33;65.79;95540.25;5007168;28;20104;-67
2021/04/03 03:57:13;;;;;;;10.27;6.45;;;;;;;4.37;65.16;95543.94;4991033;28;20038;-67
2021/04/03 03:59:38;;;;;;;10.35;6.10;;;;;;;4.25;64.54;95546.78;5008889;28;20030;-68
2021/04/03 04:02:04;;;;;;;10.07;7.13;;;;;;;4.69;64.48;95538.59;5008779;28;20036;-67
2021/04/03 04:04:29;;;;;;;13.77;6.88;;;;;;;4.97;63.29;95550.59;5010578;28;20036;-66
2021/04/03 04:06:54;;;;;;;7.28;6.35;;;;;;;4.78;63.55;95549.44;5007248;28;20492;-67
2021/04/03 04:09:20;;;;;;;12.57;7.60;;;;;;;4.37;64.43;95533.41;5008639;28;20109;-66
2021/04/03 04:11:45;;;;;;;11.55;6.93;;;;;;;4.09;65.25;95516.91;5008384;28;20065;-66
2021/04/03 04:14:10;;;;;;;11.02;7.43;;;;;;;4.63;63.82;95521.16;5008715;28;20349;-66
2021/04/03 04:16:37;;;;;;;9.23;6.53;;;;;;;4.04;65.14;95527.41;5009432;28;20030;-65
2021/04/03 04:19:02;;;;;;;11.80;7.70;;;;;;;4.30;65.12;95540.72;5008353;28;20038;-66
2021/04/03 04:21:28;;;;;;;10.32;7.22;;;;;;;4.12;65.08;95519.03;5008374;28;20091;-67
2021/04/03 04:23:53;;;;;;;11.13;7.20;;;;;;;4.32;64.61;95520.22;5008343;28;20100;-65
2021/04/03 04:26:18;;;;;;;9.13;6.65;;;;;;;4.48;63.76;95521.09;5008580;28;20500;-65
2021/04/03 04:28:44;;;;;;;10.65;6.60;;;;;;;4.80;63.51;95560.50;5010435;28;20109;-65
2021/04/03 04:31:10;;;;;;;11.52;7.00;;;;;;;4.27;63.87;95525.47;5008362;28;20050;-66
2021/04/03 04:33:35;;;;;;;10.65;6.85;;;;;;;4.98;62.95;95554.78;5008434;28;20049;-66
2021/04/03 04:36:01;;;;;;;10.95;6.63;;;;;;;4.81;62.37;95548.91;5008319;28;20069;-66
2021/04/03 04:38:26;;;;;;;11.68;7.03;;;;;;;4.53;63.27;95561.44;5008379;28;20046;-65
2021/04/03 04:40:52;;;;;;;13.35;6.22;;;;;;;4.06;64.78;95575.34;4990922;28;20081;-65
2021/04/03 04:43:21;;;;;;;11.85;6.75;;;;;;;4.08;64.65;95544.28;5009947;28;20083;-66
2021/04/03 04:45:47;;;;;;;13.02;6.15;;;;;;;3.90;64.54;95534.94;5008466;28;20038;-66
2021/04/03 04:48:13;;;;;;;10.10;6.07;;;;;;;4.28;63.26;95542.84;5008304;28;20029;-65
2021/04/03 04:50:38;;;;;;;15.00;6.65;;;;;;;4.43;63.10;95582.44;5008359;28;20046;-66
2021/04/03 04:53:06;;;;;;;10.18;5.50;;;;;;;4.62;63.16;95559.91;5007856;28;20435;-66
2021/04/03 04:55:32;;;;;;;11.90;6.63;;;;;;;4.79;62.63;95588.72;5010305;28;20022;-66
2021/04/03 04:57:57;;;;;;;9.15;6.63;;;;;;;4.91;61.90;95593.75;5008165;28;20038;-65
2021/04/03 05:00:23;;;;;;;10.25;6.10;;;;;;;4.70;62.11;95582.31;5008465;28;20146;-66
2021/04/03 05:02:48;;;;;;;12.05;5.75;;;;;;;4.04;64.22;95580.03;5007014;28;20030;-66
2021/04/03 05:05:14;;;;;;;9.15;6.07;;;;;;;4.46;62.92;95560.09;5009240;28;20088;-65
2021/04/03 05:07:39;;;;;;;10.80;5.93;;;;;;;4.39;63.45;95586.63;5013614;28;20026;-65
2021/04/03 05:10:05;;;;;;;12.05;6.25;;;;;;;4.23;64.39;95604.16;5012368;28;20034;-67
2021/04/03 05:12:30;;;;;;;7.93;5.93;;;;;;;3.81;66.20;95590.91;4994204;28;20045;-67
2021/04/03 05:14:55;;;;;;;13.13;5.70;;;;;;;3.50;66.10;95563.53;5011725;28;20066;-65
2021/04/03 05:17:22;;;;;;;8.43;5.97;;;;;;;3.11;66.82;95556.56;5011599;28;20424;-67
2021/04/03 05:19:48;;;;;;;13.45;6.80;;;;;;;3.54;67.45;95627.75;5011712;28;20118;-65
2021/04/03 05:22:13;;;;;;;11.48;5.97;;;;;;;3.68;66.06;95597.38;5013501;28;20112;-66
2021/04/03 05:24:39;;;;;;;7.50;5.22;;;;;;;3.90;65.70;95623.63;5011660;28;20100;-66
2021/04/03 05:27:04;;;;;;;13.98;6.25;;;;;;;3.70;66.37;95634.75;5011373;28;20046;-65
2021/04/03 05:29:30;;;;;;;8.50;5.40;;;;;;;3.47;65.92;95637.66;5011572;28;20084;-65
2021/04/03 05:31:55;;;;;;;9.50;5.22;;;;;;;3.47;65.42;95587.69;5011236;28;20026;-66
2021/04/03 05:34:21;;;;;;;9.13;4.65;;;;;;;3.83;63.34;95667.75;4995480;28;20037;-65
2021/04/03 05:36:46;;;;;;;9.30;3.67;;;;;;;3.16;65.14;95671.47;5011250;28;20053;-65
2021/04/03 05:39:11;;;;;;;10.38;4.90;;;;;;;3.25;65.19;95658.72;5011000;28;20045;-68
2021/04/03 05:41:37;;;;;;;6.97;3.38;;;;;;;3.10;65.34;95641.72;4993438;28;20471;-67
2021/04/03 05:44:03;;;;;;;6.13;3.53;;;;;;;2.85;65.64;95615.09;5011142;28;20049;-66
2021/04/03 05:46:28;;;;;;;8.70;5.10;;;;;;;3.95;64.20;95688.69;5012947;28;20040;-66
2021/04/03 05:48:54;;;;;;;9.52;5.28;;;;;;;4.56;62.14;95666.31;5010902;28;20037;-65
2021/04/03 05:51:20;;;;;;;6.80;5.10;;;;;;;4.45;61.87;95685.69;5010691;28;20042;-65
2021/04/03 05:53:46;;;;;;;7.55;4.90;;;;;;;3.71;62.25;95631.09;5010786;28;20560;-66
2021/04/03 05:56:13;;;;;;;5.88;3.63;;;;;;;3.18;63.26;95629.19;4993364;28;20112;-65
2021/04/03 05:58:39;;;;;;;8.40;3.95;;;;;;;3.47;63.76;95671.84;5012560;28;20030;-67
2021/04/03 06:01:06;;;;;;;5.63;4.03;;;;;;;3.82;62.74;95663.56;5010984;28;20705;-65
2021/04/03 06:03:32;;;;;;;5.15;3.20;;;;;;;2.63;63.41;95549.44;5009172;28;20046;-65
2021/04/03 06:05:58;;;;;;;6.18;3.55;;;;;;;4.20;61.10;95682.84;4993197;28;20034;-67
2021/04/03 06:08:28;;;;;;;10.40;4.15;;;;;;;3.76;61.40;95646.13;5011156;28;20030;-66
2021/04/03 06:11:17;;;;;;;11.63;3.55;;;;;;;4.59;59.97;95686.88;4994546;28;20083;-65
2021/04/03 06:14:03;;;;;;;6.32;3.60;;;;;;;4.17;60.79;95699.97;5013726;28;20021;-67
2021/04/03 06:16:32;;;;;;;6.25;3.25;;;;;;;3.84;60.83;95674.63;5012129;28;20049;-67
2021/04/03 06:19:10;;;;;;;7.90;3.10;;;;;;;4.83;58.90;95695.22;4990613;28;20030;-67
2021/04/03 06:21:36;;;;;;;5.60;3.08;;;;;;;4.60;58.48;95698.19;5006127;28;20508;-65
2021/04/03 06:24:03;;;;;;;6.82;3.33;;;;;;;4.49;57.96;95681.53;5010158;28;20042;-66
2021/04/03 06:26:28;;;;;;;8.07;3.08;;;;;;;4.08;59.12;95660.09;5011626;28;20046;-66
2021/04/03 06:28:54;;;;;;;7.63;3.42;;;;;;;4.49;58.60;95670.97;5010113;28;20491;-65
2021/04/03 06:31:21;;;;;;;8.45;3.38;;;;;;;4.82;57.03;95648.81;4993762;28;20384;-66
2021/04/03 06:33:47;;;;;;;5.22;2.80;;;;;;;4.67;58.00;95691.69;4992134;28;20046;-66
2021/04/03 06:36:14;;;;;;;6.55;2.78;;;;;;;4.22;57.79;95636.00;5003350;28;20030;-65
2021/04/03 06:38:41;;;;;;;4.43;3.60;;;;;;;4.81;57.56;95693.88;5004066;28;20399;-66
2021/04/03 06:41:24;;;;;;;5.53;2.95;;;;;;;4.85;56.83;95706.28;4994670;28;20042;-69
2021/04/03 06:44:09;;;;;;;4.90;2.72;;;;;;;4.77;57.63;95714.69;5010846;28;20034;-64
2021/04/03 06:46:37;;;;;;;8.95;3.45;;;;;;;5.45;56.05;95714.81;4995301;28;20483;-64
2021/04/03 06:49:03;;;;;;;5.60;3.22;;;;;;;6.12;54.67;95719.28;5010825;28;20038;-66
2021/04/03 06:51:28;;;;;;;5.90;4.10;;;;;;;5.14;57.16;95690.13;4995635;28;20188;-63
2021/04/03 06:53:56;;;;;;;6.63;3.60;;;;;;;5.07;56.02;95700.91;5000135;28;20041;-64
2021/04/03 06:56:23;;;;;;;4.05;3.10;;;;;;;4.92;57.12;95740.34;5009733;28;20040;-64
2021/04/03 06:58:58;;;;;;;7.70;3.42;;;;;;;4.35;60.00;95741.75;5010658;28;20361;-66
2021/04/03 07:01:26;;;;;;;6.18;3.53;;;;;;;5.12;57.64;95734.44;5012680;28;20042;-66
2021/04/03 07:03:56;;;;;;;10.55;3.75;;;;;;;5.66;56.14;95737.59;4976450;28;20509;-67
2021/04/03 07:06:23;;;;;;;11.63;3.50;;;;;;;5.08;56.91;95718.31;4991269;28;20051;-65
2021/04/03 07:08:51;;;;;;;5.82;3.75;;;;;;;5.98;55.10;95739.31;4999861;28;20084;-65
2021/04/03 07:11:17;;;;;;;6.78;3.75;;;;;;;6.14;54.43;95724.31;5010187;28;20126;-62
2021/04/03 07:13:45;;;;;;;5.18;3.20;;;;;;;6.58;54.11;95713.28;5012627;28;20518;-61
2021/04/03 07:16:11;;;;;;;6.28;3.70;;;;;;;6.71;53.49;95726.75;4993431;28;20085;-61
2021/04/03 07:18:38;;;;;;;7.05;3.95;;;;;;;6.18;54.05;95702.38;5009088;28;20054;-63
2021/04/03 07:21:06;;;;;;;5.38;3.50;;;;;;;6.05;53.99;95731.97;5009704;28;20042;-68
2021/04/03 07:23:32;;;;;;;4.05;3.42;;;;;;;5.59;54.96;95715.94;5010255;28;20026;-63
2021/04/03 07:26:00;;;;;;;6.28;4.18;;;;;;;4.83;56.18;95703.13;5010566;28;20026;-62
2021/04/03 07:28:44;;;;;;;5.55;3.22;;;;;;;5.26;56.30;95732.91;5011657;28;20088;-64
2021/04/03 07:31:10;;;;;;;5.03;3.55;;;;;;;5.07;56.07;95750.22;4992657;28;20050;-61
2021/04/03 07:33:50;;;;;;;7.05;3.22;;;;;;;4.86;56.11;95739.53;5010217;28;20121;-63
2021/04/03 07:36:31;;;;;;;5.88;3.78;;;;;;;5.05;55.77;95705.63;5010404;28;20041;-62
2021/04/03 07:38:57;;;;;;;5.57;3.40;;;;;;;5.66;55.81;95753.44;5010142;28;20046;-62
2021/04/03 07:41:22;;;;;;;4.50;3.47;;;;;;;5.32;55.52;95717.91;5010094;28;20048;-62
2021/04/03 07:43:49;;;;;;;4.78;2.90;;;;;;;5.61;54.22;95753.41;5009905;28;20057;-65
2021/04/03 07:46:20;;;;;;;5.95;2.63;;;;;;;4.82;56.50;95761.38;5012065;28;20026;-63
2021/04/03 07:48:45;;;;;;;6.20;3.20;;;;;;;5.96;54.37;95749.34;5009844;28;20046;-63
2021/04/03 07:51:15;;;;;;;6.75;3.92;;;;;;;5.66;54.67;95757.91;5009553;28;20084;-65
2021/04/03 07:53:45;;;;;;;9.98;3.60;;;;;;;5.15;55.24;95745.25;5008760;28;20092;-63
2021/04/03 07:56:13;;;;;;;4.68;2.53;;;;;;;5.64;53.67;95767.94;5009912;28;20038;-62
2021/04/03 07:58:48;;;;;;;4.60;3.05;;;;;;;4.76;55.18;95736.81;4993958;28;20369;-61
2021/04/03 08:01:14;;;;;;;5.65;3.78;;;;;;;5.88;53.88;95773.56;5010139;28;20491;-63
2021/04/03 08:03:39;;;;;;;5.45;3.50;;;;;;;5.28;55.70;95777.50;4991740;28;20057;-62
2021/04/03 08:06:07;;;;;;;7.07;3.75;;;;;;;5.06;56.17;95770.50;4992601;28;20503;-63
2021/04/03 08:08:36;;;;;;;4.30;3.25;;;;;;;5.34;53.55;95740.34;4985757;28;20129;-60
2021/04/03 08:11:12;;;;;;;5.95;3.30;;;;;;;5.59;53.72;95784.56;4989308;28;20550;-66
2021/04/03 08:13:51;;;;;;;5.40;2.95;;;;;;;5.17;55.04;95784.56;5011687;28;20034;-60
2021/04/03 08:16:17;;;;;;;5.85;2.88;;;;;;;5.63;51.65;95784.81;5010282;28;20034;-61
2021/04/03 08:18:45;;;;;;;5.00;3.58;;;;;;;6.30;51.03;95773.50;4993593;28;20492;-66
2021/04/03 08:21:11;;;;;;;6.53;3.40;;;;;;;6.21;51.12;95778.47;4989362;28;20117;-65
2021/04/03 08:23:44;;;;;;;7.63;3.30;;;;;;;5.71;52.05;95787.75;4996360;28;20171;-62
2021/04/03 08:26:10;;;;;;;5.53;3.33;;;;;;;5.78;52.40;95786.72;4991897;28;20073;-63
2021/04/03 08:28:36;;;;;;;5.72;3.10;;;;;;;6.09;51.17;95785.84;5011301;28;20109;-62
2021/04/03 08:31:33;;;;;;;6.18;3.35;;;;;;;6.59;49.79;95778.28;5009582;28;20130;-63
2021/04/03 08:34:01;;;;;;;4.45;3.65;;;;;;;6.80;48.52;95773.81;4983337;28;20507;-62
2021/04/03 08:36:30;;;;;;;4.53;3.10;;;;;;;6.91;48.24;95773.56;5003181;28;20044;-64
2021/04/03 08:38:56;;;;;;;4.75;3.47;;;;;;;6.74;48.74;95768.53;4998622;28;20069;-62
2021/04/03 08:41:27;;;;;;;6.22;3.40;;;;;;;6.58;49.49;95787.28;4997464;28;20038;-60
2021/04/03 08:43:54;;;;;;;5.95;3.63;;;;;;;6.76;49.70;95778.84;5013513;28;20028;-61
2021/04/03 08:46:21;;;;;;;3.63;3.08;;;;;;;6.60;48.25;95775.38;5014631;28;20057;-62
2021/04/03 08:49:04;;;;;;;5.35;3.78;;;;;;;6.19;49.41;95793.00;5013345;28;20107;-61
2021/04/03 08:51:30;;;;;;;3.58;3.05;;;;;;;5.42;51.44;95757.53;4998837;28;20401;-60
2021/04/03 08:54:00;;;;;;;5.25;3.22;;;;;;;5.83;51.16;95784.13;5002878;28;20045;-62
2021/04/03 08:56:35;;;;;;;5.32;3.58;;;;;;;6.77;47.75;95780.44;4995367;28;20120;-62
2021/04/03 08:59:07;;;;;;;5.55;3.70;;;;;;;6.83;47.41;95760.06;5010782;28;20061;-63
2021/04/03 09:01:35;;;;;;;4.85;3.67;;;;;;;6.57;49.14;95794.41;4977697;28;20519;-61
2021/04/03 09:04:06;;;;;;;4.55;3.25;;;;;;;7.70;45.91;95782.69;4993239;28;20551;-62
2021/04/03 09:06:52;;;;;;;5.72;3.50;;;;;;;7.86;45.52;95799.34;4993416;28;20046;-61
2021/04/03 09:09:28;;;;;;;7.55;3.28;;;;;;;7.28;46.08;95805.03;4993231;28;20050;-62
2021/04/03 09:11:59;;;;;;;3.15;2.85;;;;;;;6.91;45.63;95764.81;5002403;28;20066;-62
2021/04/03 09:14:37;;;;;;;3.03;2.38;;;;;;;6.68;46.22;95803.94;5012829;28;20042;-61
2021/04/03 09:17:24;;;;;;;5.18;3.35;;;;;;;6.50;45.73;95792.03;5012628;28;20113;-61
2021/04/03 09:19:51;;;;;;;4.38;3.13;;;;;;;6.49;48.36;95808.13;5011612;28;20475;-63
2021/04/03 09:22:19;;;;;;;3.63;3.30;;;;;;;7.14;46.71;95816.41;5014303;28;20105;-62
2021/04/03 09:24:56;;;;;;;5.03;3.15;;;;;;;6.88;47.30;95812.97;5012486;28;20065;-62
2021/04/03 09:27:23;;;;;;;4.47;2.92;;;;;;;7.08;46.47;95783.09;4994700;28;20058;-61
2021/04/03 09:29:54;;;;;;;8.10;3.85;;;;;;;7.40;45.92;95810.03;5004308;28;20038;-61
2021/04/03 09:32:20;;;;;;;4.32;2.70;;;;;;;6.57;46.16;95807.63;4997005;28;20034;-62
2021/04/03 09:34:45;;;;;;;3.90;3.03;;;;;;;7.36;44.46;95776.41;5014352;28;20030;-62
2021/04/03 09:37:13;;;;;;;8.30;3.85;;;;;;;8.21;43.88;95813.50;4994769;28;20034;-62
2021/04/03 09:39:53;;;;;;;7.22;2.55;;;;;;;9.09;41.63;95788.84;4994751;28;20041;-62
2021/04/03 09:42:21;;;;;;;4.72;2.13;;;;;;;7.43;41.01;95809.50;5012155;28;20500;-62
2021/04/03 09:44:48;;;;;;;2.45;2.05;;;;;;;7.22;40.98;95816.69;5004323;28;20034;-61
2021/04/03 09:47:14;;;;;;;2.38;1.92;;;;;;;8.63;37.54;95801.66;4992434;28;20042;-62
2021/04/03 09:49:40;;;;;;;2.38;2.03;;;;;;;7.02;40.26;95806.09;4994197;28;20380;-60
2021/04/03 09:52:07;;;;;;;3.92;2.42;;;;;;;7.03;41.68;95810.31;4991471;28;20599;-61
2021/04/03 09:54:33;;;;;;;2.63;2.10;;;;;;;7.12;40.76;95813.25;4992342;28;20030;-62
2021/04/03 09:56:58;;;;;;;3.00;1.83;;;;;;;7.01;39.79;95801.84;5001905;28;20515;-63
2021/04/03 09:59:24;;;;;;;3.25;1.95;;;;;;;6.68;40.40;95827.75;5006825;28;20046;-62
2021/04/03 10:01:50;;;;;;;4.35;2.60;;;;;;;7.18;40.16;95820.91;4974445;28;20034;-63
2021/04/03 10:04:15;;;;;;;2.67;2.10;;;;;;;7.97;38.87;95805.38;4976634;28;20038;-61
2021/04/03 10:06:40;;;;;;;3.38;2.33;;;;;;;8.65;37.93;95773.00;4991933;28;20042;-61
2021/04/03 10:09:06;;;;;;;2.72;2.40;;;;;;;7.95;39.54;95826.06;4992040;28;20140;-60
2021/04/03 10:11:32;;;;;;;4.00;2.72;;;;;;;9.09;38.60;95800.25;4991758;28;20130;-61
2021/04/03 10:13:57;;;;;;;4.60;2.70;;;;;;;8.18;41.45;95806.09;4991650;28;20081;-64
2021/04/03 10:16:22;;;;;;;4.18;2.92;;;;;;;8.22;41.03;95818.53;4994088;28;20022;-62
2021/04/03 10:18:48;;;;;;;4.97;3.17;;;;;;;8.40;41.13;95824.34;4991905;28;20032;-62
2021/04/03 10:21:14;;;;;;;4.85;3.30;;;;;;;8.53;39.67;95836.97;4973664;28;20034;-63
2021/04/03 10:23:39;;;;;;;4.40;2.35;;;;;;;7.18;43.59;95834.13;4998888;28;20096;-63
2021/04/03 10:26:05;;;;;;;4.07;2.67;;;;;;;8.50;41.11;95819.78;5011490;28;20037;-64
2021/04/03 10:28:30;;;;;;;4.70;3.20;;;;;;;8.43;40.03;95720.38;5013026;28;20496;-63
2021/04/03 10:30:58;;;;;;;3.85;3.38;;;;;;;7.99;42.11;95808.56;5011058;28;20125;-62
2021/04/03 10:33:24;;;;;;;3.75;2.78;;;;;;;9.49;39.94;95824.09;4998040;28;20045;-61
2021/04/03 10:35:49;;;;;;;4.57;3.10;;;;;;;7.76;43.16;95831.94;4991636;28;20039;-63
2021/04/03 10:38:14;;;;;;;4.60;3.05;;;;;;;8.97;40.15;95830.88;4991379;28;20069;-62
2021/04/03 10:40:40;;;;;;;5.57;2.42;;;;;;;7.80;40.85;95840.94;4992954;28;20105;-64
2021/04/03 10:43:05;;;;;;;4.70;2.47;;;;;;;8.77;38.80;95807.94;4990970;28;20129;-64
2021/04/03 10:45:30;;;;;;;5.28;2.35;;;;;;;8.70;37.65;95804.78;4991649;28;20034;-63
2021/04/03 10:47:56;;;;;;;2.97;2.58;;;;;;;8.21;38.74;95834.72;4991097;28;20042;-62
2021/04/03 10:50:21;;;;;;;3.63;2.60;;;;;;;7.97;39.14;95808.81;4973374;28;20031;-62
2021/04/03 10:52:47;;;;;;;5.88;2.47;;;;;;;8.10;39.56;95841.91;4991312;28;20033;-63
2021/04/03 10:55:13;;;;;;;4.90;2.38;;;;;;;9.10;37.59;95817.75;4993427;28;20023;-63
2021/04/03 10:57:38;;;;;;;5.15;2.13;;;;;;;9.11;36.93;95837.94;5006394;28;20393;-64
2021/04/03 11:00:05;;;;;;;2.65;2.45;;;;;;;9.82;36.63;95833.84;5010719;28;20094;-63
2021/04/03 11:02:31;;;;;;;4.05;2.33;;;;;;;8.79;38.85;95821.72;5003632;28;20049;-63
2021/04/03 11:04:56;;;;;;;4.18;2.63;;;;;;;8.79;39.05;95833.09;4991111;28;20026;-63
2021/04/03 11:07:22;;;;;;;3.47;2.70;;;;;;;9.76;38.00;95819.03;4992797;28;20073;-62
2021/04/03 11:09:47;;;;;;;4.85;3.05;;;;;;;8.73;39.92;95801.59;5007476;28;20037;-62
2021/04/03 11:12:13;;;;;;;4.63;2.85;;;;;;;8.85;40.49;95805.50;4998731;28;20031;-62
2021/04/03 11:14:43;;;;;;;3.15;2.85;;;;;;;8.17;42.30;95829.16;4998110;28;20125;-64
2021/04/03 11:17:09;;;;;;;4.80;2.75;;;;;;;7.25;44.36;95824.06;5010360;28;20180;-61
2021/04/03 11:19:34;;;;;;;4.93;3.08;;;;;;;7.91;43.57;95825.03;5012146;28;20022;-61
2021/04/03 11:22:00;;;;;;;6.05;2.83;;;;;;;7.33;44.92;95843.13;5009933;28;20053;-63
2021/04/03 11:24:26;;;;;;;4.03;2.85;;;;;;;7.88;43.44;95823.69;4992626;28;20046;-62
2021/04/03 11:26:51;;;;;;;6.55;3.30;;;;;;;7.98;43.45;95828.16;5001485;28;20508;-63
2021/04/03 11:29:17;;;;;;;5.13;3.15;;;;;;;8.20;42.81;95841.88;4990609;28;20125;-64
2021/04/03 11:31:42;;;;;;;4.40;2.85;;;;;;;8.27;41.73;95807.13;4992292;28;20125;-62
2021/04/03 11:34:08;;;;;;;3.72;3.03;;;;;;;8.21;41.63;95848.75;4990536;28;20092;-62
2021/04/03 11:36:33;;;;;;;5.20;3.58;;;;;;;7.97;42.37;95806.19;4987501;28;20034;-62
2021/04/03 11:38:58;;;;;;;3.90;2.85;;;;;;;9.22;39.99;95825.38;5010110;28;20107;-62
2021/04/03 11:41:24;;;;;;;4.78;2.70;;;;;;;8.45;41.34;95838.34;5004952;28;20119;-61
2021/04/03 11:43:49;;;;;;;2.92;2.58;;;;;;;8.26;42.02;95832.03;4990287;28;20443;-63